createdAt,value
2018-01-20T00:00:40.664Z,996.98
2018-01-20T00:01:40.675Z,996.99
2018-01-20T00:02:40.675Z,996.94
2018-01-20T00:03:40.696Z,996.97
2018-01-20T00:04:40.708Z,997
2018-01-20T00:05:40.710Z,996.98
2018-01-20T00:06:40.718Z,996.98
2018-01-20T00:07:40.730Z,996.96
2018-01-20T00:08:40.741Z,996.93
2018-01-20T00:09:40.751Z,996.93
2018-01-20T00:10:40.772Z,996.94
2018-01-20T00:11:40.774Z,996.93
2018-01-20T00:12:40.785Z,996.95
2018-01-20T00:13:40.801Z,996.92
2018-01-20T00:14:40.806Z,996.94
2018-01-20T00:15:40.818Z,996.87
2018-01-20T00:16:40.828Z,996.87
2018-01-20T00:17:40.850Z,996.87
2018-01-20T00:18:40.861Z,996.84
2018-01-20T00:19:40.863Z,996.86
2018-01-20T00:20:40.875Z,996.8
2018-01-20T00:21:40.892Z,996.83
2018-01-20T00:22:40.904Z,996.79
2018-01-20T00:23:40.914Z,996.84
2018-01-20T00:24:40.926Z,996.83
2018-01-20T00:25:40.926Z,996.84
2018-01-20T00:26:40.937Z,996.82
2018-01-20T00:27:40.960Z,996.84
2018-01-20T00:28:40.971Z,996.83
2018-01-20T00:29:40.970Z,996.85
2018-01-20T00:30:40.984Z,996.86
2018-01-20T00:31:40.993Z,996.83
2018-01-20T00:32:41.015Z,996.83
2018-01-20T00:33:41.025Z,996.8
2018-01-20T00:34:41.025Z,996.79
2018-01-20T00:35:41.046Z,996.79
2018-01-20T00:36:41.047Z,996.78
2018-01-20T00:37:41.071Z,996.75
2018-01-20T00:38:41.071Z,996.74
2018-01-20T00:39:41.080Z,996.79
2018-01-20T00:40:41.092Z,996.72
2018-01-20T00:41:41.116Z,996.76
2018-01-20T00:42:41.114Z,996.74
2018-01-20T00:43:41.123Z,996.74
2018-01-20T00:44:41.134Z,996.73
2018-01-20T00:45:41.157Z,996.75
2018-01-20T00:46:41.167Z,996.7
2018-01-20T00:47:41.178Z,996.74
2018-01-20T00:48:41.178Z,996.76
2018-01-20T00:49:41.190Z,996.77
2018-01-20T00:50:41.200Z,996.79
2018-01-20T00:51:41.211Z,996.76
2018-01-20T00:52:41.223Z,996.75
2018-01-20T00:53:41.248Z,996.73
2018-01-20T00:54:41.254Z,996.75
2018-01-20T00:55:41.255Z,996.7
2018-01-20T00:56:41.276Z,996.72
2018-01-20T00:57:41.278Z,996.79
2018-01-20T00:58:41.287Z,996.8
2018-01-20T00:59:41.306Z,996.76
2018-01-20T01:00:41.320Z,996.74
2018-01-20T01:01:41.321Z,996.79
2018-01-20T01:02:41.333Z,996.74
2018-01-20T01:03:41.356Z,996.74
2018-01-20T01:04:41.367Z,996.74
2018-01-20T01:05:41.375Z,996.75
2018-01-20T01:06:41.388Z,996.76
2018-01-20T01:07:41.390Z,996.74
2018-01-20T01:08:41.408Z,996.73
2018-01-20T01:09:41.420Z,996.75
2018-01-20T01:10:41.420Z,996.74
2018-01-20T01:11:41.440Z,996.75
2018-01-20T01:12:41.441Z,996.73
2018-01-20T01:13:41.463Z,996.69
2018-01-20T01:14:41.464Z,996.72
2018-01-20T01:15:41.484Z,996.69
2018-01-20T01:16:41.485Z,996.69
2018-01-20T01:17:41.507Z,996.69
2018-01-20T01:18:41.518Z,996.7
2018-01-20T01:19:41.517Z,996.7
2018-01-20T01:20:41.584Z,996.75
2018-01-20T01:21:41.542Z,996.77
2018-01-20T01:22:41.550Z,996.74
2018-01-20T01:23:41.572Z,996.71
2018-01-20T01:24:41.583Z,996.72
2018-01-20T01:25:41.595Z,996.69
2018-01-20T01:26:41.606Z,996.72
2018-01-20T01:27:41.605Z,996.71
2018-01-20T01:28:41.616Z,996.7
2018-01-20T01:29:41.638Z,996.67
2018-01-20T01:30:41.637Z,996.68
2018-01-20T01:31:41.649Z,996.71
2018-01-20T01:32:41.688Z,996.73
2018-01-20T01:33:41.670Z,996.68
2018-01-20T01:34:41.684Z,996.69
2018-01-20T01:35:41.703Z,996.71
2018-01-20T01:36:41.716Z,996.68
2018-01-20T01:37:41.714Z,996.67
2018-01-20T01:38:41.735Z,996.68
2018-01-20T01:39:41.737Z,996.65
2018-01-20T01:40:41.747Z,996.68
2018-01-20T01:41:41.757Z,996.7
2018-01-20T01:42:41.768Z,996.69
2018-01-20T01:43:41.824Z,996.71
2018-01-20T01:44:41.804Z,996.7
2018-01-20T01:45:41.811Z,996.66
2018-01-20T01:46:41.826Z,996.7
2018-01-20T01:47:41.824Z,996.73
2018-01-20T01:48:41.834Z,996.71
2018-01-20T01:49:41.845Z,996.72
2018-01-20T01:50:41.867Z,996.67
2018-01-20T01:51:41.871Z,996.68
2018-01-20T01:52:41.893Z,996.72
2018-01-20T01:53:41.899Z,996.7
2018-01-20T01:54:41.910Z,996.72
2018-01-20T01:55:41.920Z,996.68
2018-01-20T01:56:41.921Z,996.69
2018-01-20T01:57:41.932Z,996.67
2018-01-20T01:58:41.943Z,996.66
2018-01-20T01:59:41.965Z,996.73
2018-01-20T02:00:41.964Z,996.73
2018-01-20T02:01:41.975Z,996.75
2018-01-20T02:02:41.997Z,996.74
2018-01-20T02:03:41.996Z,996.75
2018-01-20T02:04:42.007Z,996.75
2018-01-20T02:05:42.021Z,996.74
2018-01-20T02:06:42.039Z,996.77
2018-01-20T02:07:42.040Z,996.75
2018-01-20T02:08:42.050Z,996.78
2018-01-20T02:09:42.158Z,996.78
2018-01-20T02:10:42.082Z,996.73
2018-01-20T02:11:42.084Z,996.74
2018-01-20T02:12:42.105Z,996.77
2018-01-20T02:13:42.106Z,996.71
2018-01-20T02:14:42.126Z,996.73
2018-01-20T02:15:42.139Z,996.72
2018-01-20T02:16:42.166Z,996.72
2018-01-20T02:17:42.159Z,996.72
2018-01-20T02:18:42.163Z,996.76
2018-01-20T02:19:42.181Z,996.74
2018-01-20T02:20:42.193Z,996.75
2018-01-20T02:21:42.193Z,996.72
2018-01-20T02:22:42.213Z,996.75
2018-01-20T02:23:42.227Z,996.74
2018-01-20T02:24:42.225Z,996.71
2018-01-20T02:25:42.245Z,996.7
2018-01-20T02:26:42.246Z,996.69
2018-01-20T02:27:42.258Z,996.7
2018-01-20T02:28:42.277Z,996.69
2018-01-20T02:29:42.278Z,996.71
2018-01-20T02:30:42.301Z,996.72
2018-01-20T02:31:42.312Z,996.68
2018-01-20T02:32:42.324Z,996.67
2018-01-20T02:33:42.322Z,996.66
2018-01-20T02:34:42.343Z,996.66
2018-01-20T02:35:42.354Z,996.64
2018-01-20T02:36:42.355Z,996.67
2018-01-20T02:37:42.376Z,996.61
2018-01-20T02:38:42.376Z,996.59
2018-01-20T02:39:42.398Z,996.61
2018-01-20T02:40:42.410Z,996.56
2018-01-20T02:41:42.427Z,996.58
2018-01-20T02:42:42.430Z,996.56
2018-01-20T02:43:42.430Z,996.59
2018-01-20T02:44:42.452Z,996.57
2018-01-20T02:45:42.452Z,996.53
2018-01-20T02:46:42.462Z,996.48
2018-01-20T02:47:42.484Z,996.52
2018-01-20T02:48:42.494Z,996.51
2018-01-20T02:49:42.494Z,996.48
2018-01-20T02:50:42.516Z,996.46
2018-01-20T02:51:42.527Z,996.49
2018-01-20T02:52:42.538Z,996.44
2018-01-20T02:53:42.635Z,996.46
2018-01-20T02:54:42.547Z,996.42
2018-01-20T02:55:42.570Z,996.43
2018-01-20T02:56:42.581Z,996.41
2018-01-20T02:57:42.591Z,996.37
2018-01-20T02:58:42.591Z,996.37
2018-01-20T02:59:42.603Z,996.39
2018-01-20T03:00:42.615Z,996.4
2018-01-20T03:01:42.634Z,996.38
2018-01-20T03:02:42.634Z,996.4
2018-01-20T03:03:42.645Z,996.36
2018-01-20T03:04:42.667Z,996.39
2018-01-20T03:05:42.682Z,996.34
2018-01-20T03:06:42.677Z,996.35
2018-01-20T03:07:42.688Z,996.33
2018-01-20T03:08:42.708Z,996.35
2018-01-20T03:09:42.720Z,996.38
2018-01-20T03:10:42.721Z,996.39
2018-01-20T03:11:42.742Z,996.35
2018-01-20T03:12:42.741Z,996.35
2018-01-20T03:13:42.764Z,996.39
2018-01-20T03:14:42.764Z,996.4
2018-01-20T03:15:42.786Z,996.42
2018-01-20T03:16:42.795Z,996.45
2018-01-20T03:17:42.798Z,996.43
2018-01-20T03:18:42.817Z,996.43
2018-01-20T03:19:42.820Z,996.44
2018-01-20T03:20:42.839Z,996.48
2018-01-20T03:21:42.850Z,996.46
2018-01-20T03:22:42.862Z,996.48
2018-01-20T03:23:42.860Z,996.43
2018-01-20T03:24:42.871Z,996.46
2018-01-20T03:25:42.894Z,996.38
2018-01-20T03:26:42.905Z,996.44
2018-01-20T03:27:42.914Z,996.42
2018-01-20T03:28:42.926Z,996.39
2018-01-20T03:29:42.940Z,996.42
2018-01-20T03:30:42.937Z,996.42
2018-01-20T03:31:42.948Z,996.4
2018-01-20T03:32:42.958Z,996.4
2018-01-20T03:33:42.969Z,996.43
2018-01-20T03:34:42.979Z,996.4
2018-01-20T03:35:42.990Z,996.42
2018-01-20T03:36:43.001Z,996.38
2018-01-20T03:37:43.012Z,996.43
2018-01-20T03:38:43.025Z,996.4
2018-01-20T03:39:43.034Z,996.39
2018-01-20T03:40:43.045Z,996.41
2018-01-20T03:41:43.065Z,996.38
2018-01-20T03:42:43.077Z,996.35
2018-01-20T03:43:43.088Z,996.41
2018-01-20T03:44:43.099Z,996.41
2018-01-20T03:45:43.099Z,996.42
2018-01-20T03:46:43.109Z,996.45
2018-01-20T03:47:43.131Z,996.44
2018-01-20T03:48:43.131Z,996.43
2018-01-20T03:49:43.141Z,996.37
2018-01-20T03:50:43.163Z,996.42
2018-01-20T03:51:43.324Z,996.44
2018-01-20T03:52:43.186Z,996.44
2018-01-20T03:53:43.196Z,996.43
2018-01-20T03:54:43.196Z,996.4
2018-01-20T03:55:43.218Z,996.43
2018-01-20T03:56:43.217Z,996.41
2018-01-20T03:57:43.228Z,996.37
2018-01-20T03:58:43.251Z,996.44
2018-01-20T03:59:43.263Z,996.4
2018-01-20T04:00:43.275Z,996.39
2018-01-20T04:01:43.335Z,996.4
2018-01-20T04:02:43.293Z,996.39
2018-01-20T04:03:43.295Z,996.4
2018-01-20T04:04:43.337Z,996.41
2018-01-20T04:05:43.371Z,996.4
2018-01-20T04:06:43.326Z,996.35
2018-01-20T04:07:43.348Z,996.42
2018-01-20T04:08:43.359Z,996.44
2018-01-20T04:09:43.372Z,996.39
2018-01-20T04:10:43.381Z,996.43
2018-01-20T04:11:43.397Z,996.39
2018-01-20T04:12:43.392Z,996.39
2018-01-20T04:13:43.417Z,996.41
2018-01-20T04:14:43.427Z,996.4
2018-01-20T04:15:43.424Z,996.42
2018-01-20T04:16:43.436Z,996.44
2018-01-20T04:17:43.446Z,996.38
2018-01-20T04:18:43.468Z,996.39
2018-01-20T04:19:43.467Z,996.43
2018-01-20T04:20:43.480Z,996.41
2018-01-20T04:21:43.500Z,996.38
2018-01-20T04:22:43.500Z,996.4
2018-01-20T04:23:43.520Z,996.36
2018-01-20T04:24:43.534Z,996.37
2018-01-20T04:25:43.532Z,996.38
2018-01-20T04:26:43.545Z,996.36
2018-01-20T04:27:43.565Z,996.4
2018-01-20T04:28:43.565Z,996.39
2018-01-20T04:29:43.585Z,996.38
2018-01-20T04:30:43.586Z,996.37
2018-01-20T04:31:43.598Z,996.33
2018-01-20T04:32:43.608Z,996.39
2018-01-20T04:33:43.619Z,996.3
2018-01-20T04:34:43.628Z,996.23
2018-01-20T04:35:43.639Z,996.26
2018-01-20T04:36:43.649Z,996.25
2018-01-20T04:37:43.668Z,996.2
2018-01-20T04:38:43.683Z,996.27
2018-01-20T04:39:43.693Z,996.26
2018-01-20T04:40:43.706Z,996.22
2018-01-20T04:41:43.715Z,996.25
2018-01-20T04:42:43.726Z,996.19
2018-01-20T04:43:43.737Z,996.18
2018-01-20T04:44:43.746Z,996.15
2018-01-20T04:45:43.758Z,996.12
2018-01-20T04:46:43.770Z,996.11
2018-01-20T04:47:43.769Z,996.08
2018-01-20T04:48:43.779Z,996.04
2018-01-20T04:49:43.800Z,996.08
2018-01-20T04:50:43.800Z,996.07
2018-01-20T04:51:43.811Z,996.08
2018-01-20T04:52:43.822Z,996.06
2018-01-20T04:53:43.844Z,996.04
2018-01-20T04:54:43.843Z,996.02
2018-01-20T04:55:43.859Z,996.02
2018-01-20T04:56:43.865Z,996.02
2018-01-20T04:57:43.888Z,995.99
2018-01-20T04:58:43.898Z,996.02
2018-01-20T04:59:43.908Z,996.02
2018-01-20T05:00:43.919Z,996.04
2018-01-20T05:01:43.931Z,995.97
2018-01-20T05:02:43.941Z,996
2018-01-20T05:03:43.940Z,996.01
2018-01-20T05:04:43.962Z,996.04
2018-01-20T05:05:43.972Z,995.99
2018-01-20T05:06:43.990Z,996
2018-01-20T05:07:43.995Z,996.03
2018-01-20T05:08:44.006Z,996.02
2018-01-20T05:09:44.015Z,996.04
2018-01-20T05:10:44.025Z,996.04
2018-01-20T05:11:44.027Z,996.05
2018-01-20T05:12:44.043Z,996.05
2018-01-20T05:13:44.057Z,996.05
2018-01-20T05:14:44.058Z,996
2018-01-20T05:15:44.068Z,996.01
2018-01-20T05:16:44.088Z,996.04
2018-01-20T05:17:44.191Z,996.02
2018-01-20T05:18:44.110Z,996.08
2018-01-20T05:19:44.111Z,996.02
2018-01-20T05:20:44.121Z,996.08
2018-01-20T05:21:44.146Z,996.05
2018-01-20T05:22:44.181Z,996.02
2018-01-20T05:23:44.165Z,996.05
2018-01-20T05:24:44.176Z,995.97
2018-01-20T05:25:44.177Z,996.01
2018-01-20T05:26:44.186Z,995.97
2018-01-20T05:27:44.211Z,996.01
2018-01-20T05:28:44.207Z,995.98
2018-01-20T05:29:44.234Z,995.96
2018-01-20T05:30:44.430Z,995.97
2018-01-20T05:31:44.254Z,995.93
2018-01-20T05:32:44.249Z,995.95
2018-01-20T05:33:44.262Z,995.93
2018-01-20T05:34:44.286Z,995.92
2018-01-20T05:35:44.292Z,995.95
2018-01-20T05:36:44.293Z,995.95
2018-01-20T05:37:44.316Z,995.9
2018-01-20T05:38:44.313Z,995.91
2018-01-20T05:39:44.345Z,995.92
2018-01-20T05:40:44.338Z,995.9
2018-01-20T05:41:44.357Z,995.88
2018-01-20T05:42:44.366Z,995.87
2018-01-20T05:43:44.369Z,995.91
2018-01-20T05:44:44.377Z,995.91
2018-01-20T05:45:44.399Z,995.89
2018-01-20T05:46:44.410Z,995.93
2018-01-20T05:47:44.421Z,995.89
2018-01-20T05:48:44.432Z,995.89
2018-01-20T05:49:44.441Z,995.9
2018-01-20T05:50:44.453Z,995.91
2018-01-20T05:51:44.464Z,995.89
2018-01-20T05:52:44.464Z,995.94
2018-01-20T05:53:44.485Z,995.86
2018-01-20T05:54:44.485Z,995.89
2018-01-20T05:55:44.496Z,995.89
2018-01-20T05:56:44.516Z,995.87
2018-01-20T05:57:44.517Z,995.89
2018-01-20T05:58:44.529Z,995.83
2018-01-20T05:59:44.538Z,995.85
2018-01-20T06:00:44.560Z,995.88
2018-01-20T06:01:44.559Z,995.88
2018-01-20T06:02:44.584Z,995.91
2018-01-20T06:03:44.595Z,995.89
2018-01-20T06:04:44.605Z,995.86
2018-01-20T06:05:44.615Z,995.84
2018-01-20T06:06:44.613Z,995.88
2018-01-20T06:07:44.638Z,995.88
2018-01-20T06:08:44.633Z,995.89
2018-01-20T06:09:44.655Z,995.86
2018-01-20T06:10:44.654Z,995.89
2018-01-20T06:11:44.675Z,995.91
2018-01-20T06:12:44.682Z,995.9
2018-01-20T06:13:44.698Z,995.89
2018-01-20T06:14:44.698Z,995.85
2018-01-20T06:15:44.718Z,995.88
2018-01-20T06:16:44.718Z,995.88
2018-01-20T06:17:44.740Z,995.89
2018-01-20T06:18:44.749Z,995.89
2018-01-20T06:19:44.763Z,995.86
2018-01-20T06:20:44.761Z,995.9
2018-01-20T06:21:44.785Z,995.86
2018-01-20T06:22:44.783Z,995.88
2018-01-20T06:23:44.803Z,995.82
2018-01-20T06:24:44.804Z,995.85
2018-01-20T06:25:44.824Z,995.81
2018-01-20T06:26:44.826Z,995.8
2018-01-20T06:27:44.885Z,995.78
2018-01-20T06:28:44.856Z,995.78
2018-01-20T06:29:44.857Z,995.8
2018-01-20T06:30:44.877Z,995.81
2018-01-20T06:31:44.888Z,995.78
2018-01-20T06:32:44.889Z,995.79
2018-01-20T06:33:44.910Z,995.78
2018-01-20T06:34:44.909Z,995.74
2018-01-20T06:35:44.920Z,995.78
2018-01-20T06:36:44.932Z,995.77
2018-01-20T06:37:44.941Z,995.77
2018-01-20T06:38:44.955Z,995.78
2018-01-20T06:39:44.963Z,995.78
2018-01-20T06:40:44.987Z,995.75
2018-01-20T06:41:44.984Z,995.79
2018-01-20T06:42:45.145Z,995.78
2018-01-20T06:43:45.006Z,995.76
2018-01-20T06:44:45.026Z,995.76
2018-01-20T06:45:45.037Z,995.74
2018-01-20T06:46:45.037Z,995.74
2018-01-20T06:47:45.098Z,995.7
2018-01-20T06:48:45.070Z,995.71
2018-01-20T06:49:45.079Z,995.73
2018-01-20T06:50:45.095Z,995.73
2018-01-20T06:51:45.089Z,995.71
2018-01-20T06:52:45.152Z,995.74
2018-01-20T06:53:45.124Z,995.73
2018-01-20T06:54:45.134Z,995.76
2018-01-20T06:55:45.143Z,995.75
2018-01-20T06:56:45.144Z,995.78
2018-01-20T06:57:45.165Z,995.79
2018-01-20T06:58:45.164Z,995.79
2018-01-20T06:59:45.175Z,995.78
2018-01-20T07:00:45.186Z,995.76
2018-01-20T07:01:45.203Z,995.77
2018-01-20T07:02:45.219Z,995.8
2018-01-20T07:03:45.227Z,995.81
2018-01-20T07:04:45.239Z,995.83
2018-01-20T07:05:45.252Z,995.84
2018-01-20T07:06:45.260Z,995.84
2018-01-20T07:07:45.273Z,995.85
2018-01-20T07:08:45.272Z,995.87
2018-01-20T07:09:45.294Z,995.85
2018-01-20T07:10:45.294Z,995.88
2018-01-20T07:11:45.303Z,995.87
2018-01-20T07:12:45.314Z,995.9
2018-01-20T07:13:45.338Z,995.85
2018-01-20T07:14:45.360Z,995.88
2018-01-20T07:15:45.346Z,995.9
2018-01-20T07:16:45.360Z,995.91
2018-01-20T07:17:45.377Z,995.91
2018-01-20T07:18:45.377Z,995.88
2018-01-20T07:19:45.399Z,995.96
2018-01-20T07:20:45.399Z,995.94
2018-01-20T07:21:45.410Z,995.98
2018-01-20T07:22:45.421Z,995.95
2018-01-20T07:23:45.432Z,995.93
2018-01-20T07:24:45.441Z,995.92
2018-01-20T07:25:45.463Z,995.9
2018-01-20T07:26:45.475Z,995.93
2018-01-20T07:27:45.485Z,995.94
2018-01-20T07:28:45.497Z,995.96
2018-01-20T07:29:45.504Z,995.92
2018-01-20T07:30:45.518Z,995.94
2018-01-20T07:31:45.527Z,995.97
2018-01-20T07:32:45.539Z,995.95
2018-01-20T07:33:45.538Z,995.89
2018-01-20T07:34:45.564Z,995.91
2018-01-20T07:35:45.565Z,995.89
2018-01-20T07:36:45.582Z,995.86
2018-01-20T07:37:45.592Z,995.85
2018-01-20T07:38:45.603Z,995.84
2018-01-20T07:39:45.603Z,995.84
2018-01-20T07:40:45.625Z,995.86
2018-01-20T07:41:45.625Z,995.83
2018-01-20T07:42:45.646Z,995.87
2018-01-20T07:43:45.668Z,995.86
2018-01-20T07:44:45.669Z,995.84
2018-01-20T07:45:45.667Z,995.83
2018-01-20T07:46:45.698Z,995.87
2018-01-20T07:47:45.702Z,995.87
2018-01-20T07:48:45.710Z,995.88
2018-01-20T07:49:45.713Z,995.8
2018-01-20T07:50:45.721Z,995.84
2018-01-20T07:51:45.743Z,995.86
2018-01-20T07:52:45.743Z,995.85
2018-01-20T07:53:45.753Z,995.87
2018-01-20T07:54:45.774Z,995.89
2018-01-20T07:55:45.785Z,995.84
2018-01-20T07:56:45.809Z,995.85
2018-01-20T07:57:45.796Z,995.84
2018-01-20T07:58:45.807Z,995.88
2018-01-20T07:59:45.819Z,995.89
2018-01-20T08:00:45.847Z,995.85
2018-01-20T08:01:45.858Z,995.84
2018-01-20T08:02:45.857Z,995.85
2018-01-20T08:03:45.864Z,995.88
2018-01-20T08:04:45.875Z,995.85
2018-01-20T08:05:45.898Z,995.87
2018-01-20T08:06:45.896Z,995.87
2018-01-20T08:07:45.905Z,995.88
2018-01-20T08:08:45.927Z,995.84
2018-01-20T08:09:45.936Z,995.82
2018-01-20T08:10:45.947Z,995.79
2018-01-20T08:11:45.948Z,995.8
2018-01-20T08:12:45.972Z,995.82
2018-01-20T08:13:45.980Z,995.83
2018-01-20T08:14:45.980Z,995.8
2018-01-20T08:15:45.992Z,995.8
2018-01-20T08:16:46.017Z,995.78
2018-01-20T08:17:46.013Z,995.79
2018-01-20T08:18:46.032Z,995.78
2018-01-20T08:19:46.045Z,995.79
2018-01-20T08:20:46.045Z,995.78
2018-01-20T08:21:46.069Z,995.79
2018-01-20T08:22:46.067Z,995.75
2018-01-20T08:23:46.088Z,995.74
2018-01-20T08:24:46.098Z,995.78
2018-01-20T08:25:46.100Z,995.8
2018-01-20T08:26:46.121Z,995.76
2018-01-20T08:27:46.121Z,995.75
2018-01-20T08:28:46.145Z,995.76
2018-01-20T08:29:46.154Z,995.78
2018-01-20T08:30:46.164Z,995.75
2018-01-20T08:31:46.182Z,995.75
2018-01-20T08:32:46.186Z,995.71
2018-01-20T08:33:46.186Z,995.72
2018-01-20T08:34:46.207Z,995.75
2018-01-20T08:35:46.208Z,995.7
2018-01-20T08:36:46.229Z,995.69
2018-01-20T08:37:46.229Z,995.68
2018-01-20T08:38:46.240Z,995.69
2018-01-20T08:39:46.263Z,995.71
2018-01-20T08:40:46.274Z,995.68
2018-01-20T08:41:46.273Z,995.68
2018-01-20T08:42:46.295Z,995.69
2018-01-20T08:43:46.306Z,995.69
2018-01-20T08:44:46.306Z,995.67
2018-01-20T08:45:46.316Z,995.69
2018-01-20T08:46:46.328Z,995.64
2018-01-20T08:47:46.344Z,995.64
2018-01-20T08:48:46.351Z,995.69
2018-01-20T08:49:46.361Z,995.65
2018-01-20T08:50:46.384Z,995.68
2018-01-20T08:51:46.393Z,995.66
2018-01-20T08:52:46.400Z,995.69
2018-01-20T08:53:46.412Z,995.71
2018-01-20T08:54:46.426Z,995.72
2018-01-20T08:55:46.430Z,995.74
2018-01-20T08:56:46.451Z,995.7
2018-01-20T08:57:46.448Z,995.71
2018-01-20T08:58:46.470Z,995.71
2018-01-20T08:59:46.482Z,995.72
2018-01-20T09:00:46.495Z,995.74
2018-01-20T09:01:46.502Z,995.78
2018-01-20T09:02:46.514Z,995.74
2018-01-20T09:03:46.524Z,995.77
2018-01-20T09:04:46.526Z,995.78
2018-01-20T09:05:46.546Z,995.79
2018-01-20T09:06:46.547Z,995.76
2018-01-20T09:07:46.568Z,995.79
2018-01-20T09:08:46.581Z,995.74
2018-01-20T09:09:46.580Z,995.7
2018-01-20T09:10:46.600Z,995.74
2018-01-20T09:11:46.612Z,995.73
2018-01-20T09:12:46.623Z,995.72
2018-01-20T09:13:46.638Z,995.76
2018-01-20T09:14:46.634Z,995.71
2018-01-20T09:15:46.656Z,995.73
2018-01-20T09:16:46.668Z,995.73
2018-01-20T09:17:46.678Z,995.7
2018-01-20T09:18:46.741Z,995.71
2018-01-20T09:19:46.690Z,995.66
2018-01-20T09:20:46.703Z,995.66
2018-01-20T09:21:46.723Z,995.65
2018-01-20T09:22:46.724Z,995.73
2018-01-20T09:23:46.784Z,995.65
2018-01-20T09:24:46.746Z,995.71
2018-01-20T09:25:46.758Z,995.68
2018-01-20T09:26:46.768Z,995.69
2018-01-20T09:27:46.780Z,995.7
2018-01-20T09:28:46.788Z,995.68
2018-01-20T09:29:46.811Z,995.7
2018-01-20T09:30:46.823Z,995.71
2018-01-20T09:31:46.825Z,995.75
2018-01-20T09:32:46.845Z,995.69
2018-01-20T09:33:46.858Z,995.73
2018-01-20T09:34:46.867Z,995.74
2018-01-20T09:35:46.870Z,995.69
2018-01-20T09:36:46.891Z,995.7
2018-01-20T09:37:46.889Z,995.71
2018-01-20T09:38:46.902Z,995.71
2018-01-20T09:39:46.923Z,995.67
2018-01-20T09:40:46.924Z,995.72
2018-01-20T09:41:46.954Z,995.7
2018-01-20T09:42:46.959Z,995.7
2018-01-20T09:43:46.959Z,995.69
2018-01-20T09:44:46.969Z,995.69
2018-01-20T09:45:46.992Z,995.69
2018-01-20T09:46:47.003Z,995.66
2018-01-20T09:47:47.004Z,995.68
2018-01-20T09:48:47.027Z,995.65
2018-01-20T09:49:47.038Z,995.69
2018-01-20T09:50:47.050Z,995.65
2018-01-20T09:51:47.055Z,995.69
2018-01-20T09:52:47.061Z,995.66
2018-01-20T09:53:47.073Z,995.65
2018-01-20T09:54:47.083Z,995.62
2018-01-20T09:55:47.095Z,995.64
2018-01-20T09:56:47.116Z,995.62
2018-01-20T09:57:47.128Z,995.59
2018-01-20T09:58:47.132Z,995.63
2018-01-20T09:59:47.140Z,995.65
2018-01-20T10:00:47.154Z,995.63
2018-01-20T10:01:47.162Z,995.63
2018-01-20T10:02:47.178Z,995.64
2018-01-20T10:03:47.186Z,995.64
2018-01-20T10:04:47.197Z,995.63
2018-01-20T10:05:47.218Z,995.66
2018-01-20T10:06:47.220Z,995.68
2018-01-20T10:07:47.241Z,995.61
2018-01-20T10:08:47.245Z,995.63
2018-01-20T10:09:47.254Z,995.64
2018-01-20T10:10:47.270Z,995.61
2018-01-20T10:11:47.288Z,995.57
2018-01-20T10:12:47.298Z,995.61
2018-01-20T10:13:47.299Z,995.62
2018-01-20T10:14:47.310Z,995.59
2018-01-20T10:15:47.333Z,995.56
2018-01-20T10:16:47.344Z,995.6
2018-01-20T10:17:47.356Z,995.59
2018-01-20T10:18:47.367Z,995.53
2018-01-20T10:19:47.380Z,995.57
2018-01-20T10:20:47.393Z,995.49
2018-01-20T10:21:47.402Z,995.5
2018-01-20T10:22:47.415Z,995.45
2018-01-20T10:23:47.414Z,995.46
2018-01-20T10:24:47.425Z,995.48
2018-01-20T10:25:47.437Z,995.47
2018-01-20T10:26:47.463Z,995.42
2018-01-20T10:27:47.478Z,995.42
2018-01-20T10:28:47.472Z,995.46
2018-01-20T10:29:47.483Z,995.45
2018-01-20T10:30:47.528Z,995.44
2018-01-20T10:31:47.520Z,995.37
2018-01-20T10:32:47.522Z,995.39
2018-01-20T10:33:47.557Z,995.43
2018-01-20T10:34:47.558Z,995.42
2018-01-20T10:35:47.553Z,995.37
2018-01-20T10:36:47.564Z,995.33
2018-01-20T10:37:47.576Z,995.31
2018-01-20T10:38:47.598Z,995.33
2018-01-20T10:39:47.609Z,995.3
2018-01-20T10:40:47.611Z,995.28
2018-01-20T10:41:47.621Z,995.25
2018-01-20T10:42:47.634Z,995.25
2018-01-20T10:43:47.656Z,995.22
2018-01-20T10:44:47.668Z,995.24
2018-01-20T10:45:47.676Z,995.19
2018-01-20T10:46:47.690Z,995.14
2018-01-20T10:47:47.724Z,995.12
2018-01-20T10:48:47.709Z,995.08
2018-01-20T10:49:47.866Z,995.08
2018-01-20T10:50:47.737Z,995.03
2018-01-20T10:51:47.752Z,995.03
2018-01-20T10:52:47.750Z,995.05
2018-01-20T10:53:47.772Z,995.02
2018-01-20T10:54:47.774Z,995.02
2018-01-20T10:55:47.785Z,995.01
2018-01-20T10:56:47.817Z,995.05
2018-01-20T10:57:47.821Z,995.02
2018-01-20T10:58:47.831Z,995.05
2018-01-20T10:59:47.895Z,995.06
2018-01-20T11:00:47.844Z,995.04
2018-01-20T11:01:47.867Z,995.01
2018-01-20T11:02:47.868Z,995.02
2018-01-20T11:03:47.889Z,994.99
2018-01-20T11:04:47.901Z,994.9
2018-01-20T11:05:47.913Z,994.95
2018-01-20T11:06:47.927Z,994.94
2018-01-20T11:07:47.931Z,994.98
2018-01-20T11:08:47.938Z,994.95
2018-01-20T11:09:47.950Z,994.94
2018-01-20T11:10:47.962Z,994.94
2018-01-20T11:11:47.984Z,995
2018-01-20T11:12:47.996Z,994.93
2018-01-20T11:13:48.008Z,994.94
2018-01-20T11:14:48.033Z,994.96
2018-01-20T11:15:48.031Z,994.96
2018-01-20T11:16:48.043Z,994.91
2018-01-20T11:17:48.055Z,994.87
2018-01-20T11:18:48.066Z,994.9
2018-01-20T11:19:48.070Z,994.86
2018-01-20T11:20:48.080Z,994.84
2018-01-20T11:21:48.098Z,994.78
2018-01-20T11:22:48.103Z,994.79
2018-01-20T11:23:48.125Z,994.77
2018-01-20T11:24:48.288Z,994.75
2018-01-20T11:25:48.151Z,994.7
2018-01-20T11:26:48.178Z,994.72
2018-01-20T11:27:48.164Z,994.73
2018-01-20T11:28:48.176Z,994.7
2018-01-20T11:29:48.248Z,994.68
2018-01-20T11:30:48.199Z,994.69
2018-01-20T11:31:48.211Z,994.66
2018-01-20T11:32:48.223Z,994.62
2018-01-20T11:33:48.234Z,994.64
2018-01-20T11:34:48.257Z,994.59
2018-01-20T11:35:48.269Z,994.54
2018-01-20T11:36:48.273Z,994.52
2018-01-20T11:37:48.283Z,994.47
2018-01-20T11:38:48.297Z,994.5
2018-01-20T11:39:48.308Z,994.48
2018-01-20T11:40:48.329Z,994.4
2018-01-20T11:41:48.330Z,994.41
2018-01-20T11:42:48.343Z,994.43
2018-01-20T11:43:48.355Z,994.35
2018-01-20T11:44:48.386Z,994.33
2018-01-20T11:45:48.379Z,994.35
2018-01-20T11:46:48.402Z,994.36
2018-01-20T11:47:48.417Z,994.35
2018-01-20T11:48:48.444Z,994.31
2018-01-20T11:49:48.428Z,994.29
2018-01-20T11:50:48.452Z,994.34
2018-01-20T11:51:48.451Z,994.24
2018-01-20T11:52:48.464Z,994.22
2018-01-20T11:53:48.478Z,994.21
2018-01-20T11:54:48.499Z,994.25
2018-01-20T11:55:48.545Z,994.21
2018-01-20T11:56:48.512Z,994.19
2018-01-20T11:57:48.536Z,994.23
2018-01-20T11:58:48.549Z,994.19
2018-01-20T11:59:48.549Z,994.19
2018-01-20T12:00:48.562Z,994.2
2018-01-20T12:01:48.585Z,994.11
2018-01-20T12:02:48.599Z,994.05
2018-01-20T12:03:48.624Z,994.04
2018-01-20T12:04:48.621Z,993.97
2018-01-20T12:05:48.634Z,994.04
2018-01-20T12:06:48.645Z,993.99
2018-01-20T12:07:48.659Z,993.96
2018-01-20T12:08:48.663Z,993.92
2018-01-20T12:09:48.673Z,993.93
2018-01-20T12:10:48.685Z,993.88
2018-01-20T12:11:48.708Z,993.88
2018-01-20T12:12:48.710Z,993.89
2018-01-20T12:13:48.732Z,993.87
2018-01-20T12:14:48.734Z,993.93
2018-01-20T12:15:48.758Z,993.85
2018-01-20T12:16:48.760Z,993.79
2018-01-20T12:17:48.771Z,993.8
2018-01-20T12:18:48.789Z,993.81
2018-01-20T12:19:48.796Z,993.8
2018-01-20T12:20:48.818Z,993.74
2018-01-20T12:21:48.821Z,993.76
2018-01-20T12:22:48.833Z,993.74
2018-01-20T12:23:48.858Z,993.74
2018-01-20T12:24:48.870Z,993.67
2018-01-20T12:25:48.880Z,993.67
2018-01-20T12:26:48.894Z,993.67
2018-01-20T12:27:48.909Z,993.65
2018-01-20T12:28:48.917Z,993.67
2018-01-20T12:29:48.929Z,993.64
2018-01-20T12:30:48.942Z,993.61
2018-01-20T12:31:48.945Z,993.56